Terminal Aerodrome Forecast
Issued by NWS Caribou, ME

Home | Current Version | Previous Version | Text Only | Print | Product List | Glossary On
Versions: 1 2 3 4 5 6 7 8 9 10 11 12 13 14 15 16 17
000
FTUS41 KCAR 300520
TAFBGR
TAF
KBGR 300520Z 3006/3106 19005KT P6SM SCT250
     FM301200 19009KT P6SM BKN120
     FM301700 19012KT P6SM OVC025
     FM301800 19012KT P6SM OVC015
     FM310100 21007KT P6SM OVC025
     FM310200 21007KT P6SM BKN050=

USA.gov is the U.S. government's official web portal to all federal, state and local government web resources and services.